Latest Weather Observations for Hervey Bay

IDQ60801

Issued at 6:35 am EST Saturday 26 July 2014 (issued every 30 minutes, with the page automatically refreshed every 10 minutes)

About weather observations | Map of weather stations | Latest weather observations for QLD | Other Formats
Station Details ID: 040405 Name: HERVEY BAY AIRPORT Lat: -25.32 Lon: 152.88 Height: 12.98 m
Data from the previous 72 hours. | See also: Recent months at Hervey Bay
Date/Time
EST
Temp
°C
App
Temp
°C
Dew
Point
Rel
Hum
%
Delta-T
°C
Wind Press
QNH
hPa
Press
MSL
hPa
Rain
since 9 am
mm
Dir
 
Spd
km/h
Gust
km/h
Spd
kts
Gust
kts
26/06:30am 14.2 14.9 13.4 95 0.4 S 2 7 1 4 1026.2 - 0.0
26/06:00am 14.2 13.9 13.4 95 0.4 SSW 7 11 4 6 1026.1 1026.0 0.0
26/05:30am 13.9 14.9 13.1 95 0.4 CALM 0 0 0 0 1025.5 - 0.0
26/05:00am 13.9 13.7 13.1 95 0.4 SSW 6 9 3 5 1025.7 - 0.0
26/04:30am 13.6 14.5 12.8 95 0.4 CALM 0 6 0 3 1025.6 - 0.0
26/04:00am 13.7 13.9 12.9 95 0.4 SW 4 7 2 4 1025.0 - 0.0
26/03:30am 13.7 13.3 13.1 96 0.3 SSW 7 11 4 6 1025.4 - 0.0
26/03:00am 12.9 12.4 12.1 95 0.4 SSW 6 9 3 5 1025.4 1025.3 0.0
26/02:30am 12.8 13.4 12.0 95 0.4 CALM 0 4 0 2 1025.4 - 0.0
26/02:00am 12.1 11.4 11.3 95 0.4 S 6 7 3 4 1025.8 - 0.0
26/01:30am 12.2 11.5 11.4 95 0.4 SSW 6 9 3 5 1025.8 - 0.0
26/01:00am 11.4 10.4 10.3 93 0.6 W 6 6 3 3 1026.0 - 0.0
26/12:30am 11.6 11.8 10.7 94 0.5 CALM 0 6 0 3 1026.3 - 0.0
26/12:00am 11.3 11.4 10.2 93 0.6 NNE 0 0 0 0 1026.2 1026.1 0.0
 
Date/Time
EST
Temp
°C
App
Temp
°C
Dew
Point
Rel
Hum
%
Delta-T
°C
Wind Press
QNH
hPa
Press
MSL
hPa
Rain
since 9 am
mm
Dir
 
Spd
km/h
Gust
km/h
Spd
kts
Gust
kts
25/11:30pm 11.4 11.5 10.1 92 0.7 CALM 0 0 0 0 1026.3 - 0.0
25/11:00pm 11.8 12.1 10.9 94 0.5 CALM 0 0 0 0 1026.6 - 0.0
25/10:30pm 11.6 11.8 10.7 94 0.5 CALM 0 0 0 0 1026.8 - 0.0
25/10:00pm 11.3 11.4 10.0 92 0.7 CALM 0 0 0 0 1026.8 - 0.0
25/09:30pm 11.5 11.6 10.2 92 0.7 CALM 0 0 0 0 1026.8 - 0.0
25/09:00pm 11.6 11.7 10.2 91 0.7 CALM 0 0 0 0 1026.8 1026.7 0.0
25/08:30pm 12.2 12.4 10.6 90 0.8 CALM 0 0 0 0 1026.6 - 0.0
25/08:00pm 12.6 12.9 10.8 89 0.9 CALM 0 0 0 0 1026.2 - 0.0
25/07:30pm 13.2 13.6 11.3 88 1.0 CALM 0 0 0 0 1025.8 - 0.0
25/07:00pm 13.9 14.5 11.8 87 1.1 CALM 0 0 0 0 1025.6 - 0.0
25/06:30pm 15.0 15.6 12.0 82 1.6 CALM 0 0 0 0 1025.1 - 0.0
25/06:00pm 16.3 17.0 12.1 76 2.3 CALM 0 0 0 0 1024.9 1024.8 0.0
25/05:30pm 19.0 19.1 13.8 72 3.0 NNE 6 7 3 4 1024.6 - 0.0
25/05:00pm 20.5 20.0 13.9 66 3.8 NNE 9 11 5 6 1024.4 - 0.0
25/04:30pm 21.7 21.2 13.9 61 4.5 N 9 13 5 7 1024.0 - 0.0
25/04:00pm 22.4 21.9 13.7 58 5.0 N 9 15 5 8 1023.7 - 0.0
25/03:30pm 22.6 21.8 13.9 58 5.1 N 11 17 6 9 1023.6 - 0.0
25/03:00pm 22.8 21.5 13.6 56 5.3 E 13 20 7 11 1023.5 1023.4 0.0
25/02:30pm 23.0 21.7 13.8 56 5.4 ESE 13 20 7 11 1023.6 - 0.0
25/02:00pm 23.2 21.4 13.4 54 5.7 E 15 19 8 10 1023.7 - 0.0
25/01:30pm 22.9 21.3 13.9 57 5.3 E 15 20 8 11 1023.9 - 0.0
25/01:00pm 22.9 21.9 14.7 60 4.9 ESE 13 19 7 10 1024.2 - 0.0
25/12:30pm 23.0 21.7 14.8 60 4.9 E 15 19 8 10 1024.7 - 0.0
25/12:00pm 22.5 21.6 14.9 62 4.5 E 13 19 7 10 1025.2 1025.1 0.0
25/11:30am 22.7 22.0 15.3 63 4.4 E 13 17 7 9 1025.6 - 0.0
25/11:00am 21.9 21.8 15.0 65 4.1 E 9 13 5 7 1026.0 - 0.0
25/10:30am 20.9 21.3 15.2 70 3.4 S 7 9 4 5 1026.3 - 0.0
25/10:00am 20.0 20.5 15.0 73 2.9 SW 6 9 3 5 1026.6 - 0.0
25/09:30am 18.9 19.1 14.6 76 2.5 SSW 7 9 4 5 1026.7 - 0.0
25/09:00am 17.2 17.3 14.5 84 1.5 SW 7 9 4 5 1026.5 1026.4 0.0
25/08:30am 14.8 14.5 13.2 90 0.9 SW 7 9 4 5 1026.3 - 0.0
25/08:00am 13.0 11.9 12.1 94 0.5 SSW 9 13 5 7 1026.1 - 0.0
25/07:30am 11.4 11.7 10.8 96 0.3 CALM 0 0 0 0 1025.8 - 0.0
25/07:00am 11.3 10.4 10.8 97 0.3 WSW 6 7 3 4 1025.5 - 0.0
25/06:40am 10.6 9.5 10.0 96 0.3 SSW 6 7 3 4 1025.2 - 0.0
25/06:30am 9.8 8.5 9.2 96 0.3 WSW 6 7 3 4 1025.1 - 0.0
25/06:00am 10.3 9.1 9.7 96 0.3 SSW 6 7 3 4 1024.8 1024.7 0.0
25/05:58am 10.2 9.0 9.6 96 0.3 SSW 6 7 3 4 1024.8 - 0.0
25/05:54am 10.1 8.9 9.5 96 0.3 SSW 6 7 3 4 1024.8 - 0.0
25/05:34am 9.5 8.5 8.7 95 0.4 SW 4 7 2 4 1024.7 - 0.0
25/05:30am 9.6 9.3 8.8 95 0.4 CALM 0 7 0 4 1024.6 - 0.0
25/05:00am 9.5 8.5 8.7 95 0.4 SSW 4 9 2 5 1024.2 - 0.0
25/04:31am 9.6 8.2 8.8 95 0.4 SSW 6 7 3 4 1024.0 - 0.0
25/04:30am 9.6 8.2 8.8 95 0.4 SSW 6 7 3 4 1024.0 - 0.0
25/04:05am 10.8 10.9 10.2 96 0.3 CALM 0 6 0 3 1023.8 - 0.0
25/04:00am 11.0 10.4 10.4 96 0.3 SSW 4 9 2 5 1023.8 - 0.0
25/03:30am 10.8 10.5 10.2 96 0.3 SSW 2 7 1 4 1023.9 - 0.0
25/03:00am 10.1 8.8 9.3 95 0.4 SW 6 7 3 4 1023.9 1023.8 0.0
25/02:37am 10.1 10.0 9.3 95 0.4 CALM 0 0 0 0 1024.0 - 0.0
25/02:30am 10.2 10.1 9.4 95 0.4 CALM 0 0 0 0 1024.1 - 0.0
25/02:17am 10.2 10.1 9.4 95 0.4 CALM 0 0 0 0 1024.0 - 0.0
25/02:00am 11.1 10.9 10.3 95 0.4 SW 2 6 1 3 1024.0 - 0.0
25/01:30am 10.5 10.5 9.7 95 0.4 CALM 0 0 0 0 1024.1 - 0.0
25/01:00am 10.8 9.2 10.2 96 0.3 SSW 9 11 5 6 1024.2 - 0.0
25/12:30am 9.6 8.2 8.7 94 0.4 NW 6 7 3 4 1024.0 - 0.0
25/12:00am 9.6 9.3 8.5 93 0.5 CALM 0 0 0 0 1024.1 1024.0 0.0
 
Date/Time
EST
Temp
°C
App
Temp
°C
Dew
Point
Rel
Hum
%
Delta-T
°C
Wind Press
QNH
hPa
Press
MSL
hPa
Rain
since 9 am
mm
Dir
 
Spd
km/h
Gust
km/h
Spd
kts
Gust
kts
24/11:30pm 9.9 9.6 8.8 93 0.5 CALM 0 0 0 0 1024.0 - 0.0
24/11:00pm 10.0 9.7 8.8 92 0.6 CALM 0 0 0 0 1024.0 - 0.0
24/10:30pm 10.2 10.0 9.0 92 0.6 CALM 0 0 0 0 1024.3 - 0.0
24/10:00pm 10.4 10.2 9.2 92 0.6 CALM 0 0 0 0 1024.2 - 0.0
24/09:30pm 10.6 10.4 9.2 91 0.7 CALM 0 0 0 0 1024.1 - 0.0
24/09:00pm 11.1 11.1 9.7 91 0.7 CALM 0 0 0 0 1023.9 1023.8 0.0
24/08:30pm 11.5 11.5 9.9 90 0.8 CALM 0 0 0 0 1023.7 - 0.0
24/08:10pm 11.8 11.8 9.9 88 1.0 CALM 0 0 0 0 1023.7 - 0.0
24/08:00pm 12.1 11.8 10.2 88 1.0 NW 2 6 1 3 1023.5 - 0.0
24/07:52pm 12.2 11.6 10.4 89 0.9 N 4 7 2 4 1023.5 - 0.0
24/07:30pm 13.0 13.4 11.4 90 0.8 CALM 0 0 0 0 1023.2 - 0.0
24/07:00pm 13.3 13.5 10.7 84 1.4 CALM 0 0 0 0 1022.8 - 0.0
24/06:30pm 14.7 13.9 11.1 79 1.9 ESE 6 7 3 4 1022.5 - 0.0
24/06:00pm 17.2 17.0 13.5 79 2.1 E 7 9 4 5 1022.1 1022.0 0.0
24/05:30pm 18.4 17.0 13.3 72 2.9 E 13 15 7 8 1021.7 - 0.0
24/05:00pm 19.4 17.6 13.3 68 3.5 E 15 19 8 10 1021.3 - 0.0
24/04:30pm 20.0 18.3 13.5 66 3.7 E 15 20 8 11 1020.9 - 0.0
24/04:00pm 20.8 19.1 13.5 63 4.2 E 15 22 8 12 1020.7 - 0.0
24/03:30pm 22.1 20.4 12.6 55 5.4 E 13 19 7 10 1020.5 - 0.0
24/03:00pm 21.9 19.1 12.7 56 5.2 E 19 24 10 13 1020.5 1020.4 0.0
24/02:30pm 22.2 20.0 12.2 53 5.6 ESE 15 20 8 11 1020.5 - 0.0
24/02:00pm 22.4 20.4 12.6 54 5.6 ESE 15 20 8 11 1020.4 - 0.0
24/01:30pm 21.9 19.7 12.2 54 5.5 ESE 15 20 8 11 1020.7 - 0.0
24/01:00pm 21.9 20.0 11.9 53 5.6 E 13 20 7 11 1020.9 - 0.0
24/12:30pm 21.8 19.5 11.8 53 5.6 E 15 20 8 11 1021.0 - 0.0
24/12:00pm 21.8 19.2 12.1 54 5.4 E 17 22 9 12 1021.5 1021.4 0.0
24/11:30am 21.4 18.5 12.3 56 5.1 ESE 19 24 10 13 1022.2 - 0.0
24/11:00am 21.3 19.8 13.0 59 4.7 SE 13 22 7 12 1022.5 - 0.0
24/10:30am 20.6 18.8 13.3 63 4.2 ESE 15 20 8 11 1022.5 - 0.0
24/10:00am 20.3 19.8 13.7 66 3.8 S 9 17 5 9 1022.5 - 0.0
24/09:30am 18.9 18.9 14.2 74 2.7 SW 7 11 4 6 1022.4 - 0.0
24/09:00am 17.1 16.5 13.6 80 2.0 SW 9 11 5 6 1022.5 1022.4 0.2
24/08:30am 15.4 14.3 13.1 86 1.3 SSW 11 15 6 8 1022.5 - 0.2
24/08:00am 13.2 11.2 11.6 90 0.9 SSW 13 15 7 8 1022.2 - 0.2
24/07:30am 12.3 11.0 11.4 94 0.5 SSW 9 13 5 7 1022.2 - 0.2
24/07:00am 11.4 10.5 10.8 96 0.3 SW 6 7 3 4 1021.8 - 0.2
24/06:30am 9.9 8.0 9.1 95 0.4 SW 9 11 5 6 1021.3 - 0.2
24/06:00am 10.8 9.1 10.0 95 0.4 S 9 13 5 7 1021.2 1021.1 0.2
24/05:30am 10.7 9.4 9.9 95 0.4 SSW 7 11 4 6 1021.3 - 0.2
24/05:00am 10.9 9.2 10.0 94 0.5 SSW 9 13 5 7 1021.0 - 0.2
24/04:30am 11.3 9.4 10.4 94 0.5 SSW 11 15 6 8 1020.8 - 0.2
24/04:00am 11.3 9.4 10.5 95 0.4 SSW 11 17 6 9 1020.5 - 0.2
24/03:30am 11.5 9.7 10.7 95 0.4 SW 11 13 6 7 1020.6 - 0.2
24/03:00am 11.4 9.5 10.6 95 0.4 SSW 11 15 6 8 1020.6 1020.5 0.0
24/02:30am 11.2 9.7 10.4 95 0.4 SSW 9 13 5 7 1020.8 - 0.0
24/02:00am 11.3 9.8 10.5 95 0.4 SW 9 11 5 6 1020.9 - 0.0
24/01:30am 11.4 9.9 10.6 95 0.4 SW 9 11 5 6 1021.0 - 0.0
24/01:00am 11.3 9.8 10.7 96 0.3 SW 9 11 5 6 1021.0 - 0.0
24/12:30am 10.2 8.7 9.3 94 0.4 SSW 7 9 4 5 1020.9 - 0.0
24/12:00am 10.5 9.1 9.7 95 0.4 SW 7 9 4 5 1021.0 1020.9 0.0
 
Date/Time
EST
Temp
°C
App
Temp
°C
Dew
Point
Rel
Hum
%
Delta-T
°C
Wind Press
QNH
hPa
Press
MSL
hPa
Rain
since 9 am
mm
Dir
 
Spd
km/h
Gust
km/h
Spd
kts
Gust
kts
23/11:30pm 10.5 9.1 9.7 95 0.4 SSW 7 9 4 5 1021.3 - 0.0
23/11:00pm 10.2 8.7 9.3 94 0.4 SW 7 9 4 5 1021.6 - 0.0
23/10:30pm 10.0 8.4 8.9 93 0.5 SSW 7 9 4 5 1021.3 - 0.0
23/10:00pm 11.1 9.5 10.2 94 0.5 S 9 11 5 6 1021.4 - 0.0
23/09:30pm 10.6 9.3 9.2 91 0.7 SSW 6 7 3 4 1021.4 - 0.0
23/09:00pm 10.7 9.2 9.0 89 0.8 SW 7 9 4 5 1021.6 1021.5 0.0
23/08:30pm 11.5 10.3 9.6 88 1.0 WNW 6 7 3 4 1021.6 - 0.0
23/08:00pm 12.7 11.8 10.8 88 1.0 SW 6 7 3 4 1021.3 - 0.0
23/07:30pm 14.0 14.5 11.5 85 1.3 CALM 0 2 0 1 1020.7 - 0.0
23/07:00pm 15.4 14.8 11.8 79 1.9 SSE 6 7 3 4 1020.5 - 0.0
23/06:30pm 16.5 15.6 12.5 77 2.2 SSE 9 15 5 8 1020.6 - 0.0
23/06:00pm 17.0 15.7 12.5 75 2.5 SE 11 17 6 9 1020.4 1020.3 0.0
23/05:30pm 17.6 15.9 12.5 72 2.8 SE 13 20 7 11 1020.2 - 0.0
23/05:00pm 17.8 15.7 12.3 70 3.0 SE 15 24 8 13 1020.1 - 0.0
23/04:30pm 18.8 16.0 12.5 67 3.5 SE 19 30 10 16 1019.8 - 0.0
23/04:00pm 19.6 16.8 12.6 64 3.9 SE 19 30 10 16 1019.6 - 0.0
23/03:30pm 19.8 16.7 12.3 62 4.2 SE 20 30 11 16 1019.6 - 0.0
23/03:00pm 20.4 17.4 11.9 58 4.7 SE 19 32 10 17 1019.4 1019.3 0.0
23/02:30pm 20.6 17.5 12.1 58 4.8 SE 20 32 11 17 1019.6 - 0.0
23/02:00pm 21.1 18.2 12.8 59 4.7 ESE 20 30 11 16 1019.7 - 0.0
23/01:30pm 20.8 18.3 12.2 58 4.8 S 17 22 9 12 1020.0 - 0.0
23/01:00pm 20.9 17.8 12.3 58 4.8 ESE 20 30 11 16 1020.2 - 0.0
23/12:30pm 21.3 18.5 12.7 58 4.9 SE 19 30 10 16 1019.7 - 0.0
23/12:00pm 19.9 16.8 11.7 59 4.5 SE 19 30 10 16 1020.6 1020.5 0.0
23/11:30am 20.7 18.8 12.9 61 4.4 SSE 15 20 8 11 1021.3 - 0.0
23/11:00am 19.9 18.0 12.9 64 4.0 S 15 24 8 13 1021.7 - 0.0
23/10:30am 19.0 16.9 12.5 66 3.6 S 15 24 8 13 1022.1 - 0.0
23/10:00am 18.4 15.9 12.4 68 3.3 SSW 17 24 9 13 1022.4 - 0.0
23/09:30am 17.4 15.3 12.5 73 2.7 SSW 15 20 8 11 1022.6 - 0.0
23/09:00am 16.3 14.3 12.7 79 2.0 SSW 15 20 8 11 1022.5 1022.4 0.2
23/08:30am 14.8 12.7 12.5 86 1.3 SSW 15 22 8 12 1022.2 - 0.2
23/08:00am 12.8 10.8 11.5 92 0.7 SSW 13 19 7 10 1021.9 - 0.2
23/07:30am 11.5 8.8 10.4 93 0.6 SSW 15 20 8 11 1021.4 - 0.2
23/07:00am 11.1 8.4 10.3 95 0.4 SSW 15 19 8 10 1021.0 - 0.2

Other Formats:

Comma delimited format used in spreadsheet applications
http://www.bom.gov.au/fwo/IDQ60801/IDQ60801.95565.axf

JavaScript Object Notation format (JSON) in row-major order
http://www.bom.gov.au/fwo/IDQ60801/IDQ60801.95565.json